Time;durP1;ratioP1;P1;durP2;ratioP2;P2;SDS_P1;SDS_P2;PMS_P1;PMS_P2;Temp;Humidity;BMP_temperature;BMP_pressure;BME280_temperature;BME280_humidity;BME280_pressure;Samples;Min_cycle;Max_cycle;Signal;HPM_P1;HPM_P2
2022/05/28 00:01:05;;;;;;;6.72;1.70;;;13.10;88.70;;;;;;5102797;28;20016;-68
2022/05/28 00:03:32;;;;;;;11.10;1.90;;;13.10;89.20;;;;;;5101867;28;20024;-68
2022/05/28 00:05:58;;;;;;;7.53;1.60;;;13.00;89.50;;;;;;5103957;28;20016;-68
2022/05/28 00:08:24;;;;;;;6.30;2.30;;;13.00;89.90;;;;;;5088879;28;20029;-68
2022/05/28 00:10:51;;;;;;;9.40;2.13;;;13.00;90.00;;;;;;5083734;28;20219;-68
2022/05/28 00:13:17;;;;;;;5.25;1.95;;;13.00;90.20;;;;;;5082320;28;20052;-69
2022/05/28 00:15:43;;;;;;;5.90;1.70;;;12.90;90.20;;;;;;5083387;28;20029;-69
2022/05/28 00:18:09;;;;;;;7.55;1.60;;;12.90;90.30;;;;;;5082435;28;20160;-68
2022/05/28 00:20:35;;;;;;;11.18;1.73;;;12.90;90.40;;;;;;5082682;28;20025;-69
2022/05/28 00:23:02;;;;;;;10.77;2.30;;;12.90;90.70;;;;;;5081993;28;20040;-68
2022/05/28 00:25:28;;;;;;;5.97;1.92;;;12.90;90.60;;;;;;5082405;28;20047;-68
2022/05/28 00:27:54;;;;;;;9.27;2.03;;;12.90;90.60;;;;;;5118276;28;20041;-68
2022/05/28 00:30:20;;;;;;;8.57;1.85;;;12.90;90.70;;;;;;5124245;28;20039;-68
2022/05/28 00:32:46;;;;;;;7.07;1.77;;;12.80;90.70;;;;;;5123732;28;20030;-68
2022/05/28 00:35:15;;;;;;;9.57;1.70;;;12.90;90.80;;;;;;5122847;28;20108;-68
2022/05/28 00:37:42;;;;;;;12.68;1.85;;;12.90;90.80;;;;;;5123605;28;20031;-68
2022/05/28 00:40:13;;;;;;;11.57;1.92;;;12.90;90.90;;;;;;5123126;28;20020;-68
2022/05/28 00:42:39;;;;;;;11.70;1.90;;;12.70;91.20;;;;;;5124024;28;20370;-68
2022/05/28 00:45:05;;;;;;;10.57;2.20;;;12.60;91.70;;;;;;5123543;28;20019;-68
2022/05/28 00:47:31;;;;;;;7.35;1.85;;;12.50;92.00;;;;;;5108127;28;20210;-68
2022/05/28 00:49:57;;;;;;;7.10;2.00;;;12.40;92.30;;;;;;5102134;28;20051;-68
2022/05/28 00:52:25;;;;;;;7.97;2.25;;;12.20;92.80;;;;;;5103234;28;20319;-68
2022/05/28 00:54:52;;;;;;;10.48;2.00;;;12.10;93.30;;;;;;5102101;28;20023;-68
2022/05/28 00:57:20;;;;;;;8.32;2.15;;;12.00;93.50;;;;;;5101793;28;20019;-68
2022/05/28 00:59:46;;;;;;;16.98;2.40;;;12.00;93.50;;;;;;5103559;28;20024;-68
2022/05/28 01:02:35;;;;;;;12.40;2.03;;;11.90;93.60;;;;;;5102245;28;20079;-68
2022/05/28 01:05:07;;;;;;;13.43;2.70;;;11.90;93.70;;;;;;5103117;28;20338;-68
2022/05/28 01:07:49;;;;;;;13.43;2.28;;;11.80;94.00;;;;;;5095378;28;20021;-68
2022/05/28 01:10:39;;;;;;;18.80;2.92;;;11.70;94.20;;;;;;5081741;28;20029;-68
2022/05/28 01:13:45;;;;;;;11.52;2.72;;;11.70;94.30;;;;;;5067651;28;20020;-68
2022/05/28 01:16:19;;;;;;;9.63;2.17;;;11.70;94.40;;;;;;5070929;28;20029;-69
2022/05/28 01:18:52;;;;;;;14.77;2.78;;;11.70;94.40;;;;;;5085699;28;20032;-69
2022/05/28 01:21:42;;;;;;;7.55;2.13;;;11.70;94.40;;;;;;5085624;28;20024;-69
2022/05/28 01:24:33;;;;;;;7.55;2.40;;;11.70;94.30;;;;;;5085256;28;20244;-68
2022/05/28 01:27:05;;;;;;;10.77;2.45;;;11.60;94.30;;;;;;5091878;28;20064;-68
2022/05/28 01:29:37;;;;;;;8.98;2.40;;;11.50;94.60;;;;;;5127046;28;20027;-68
2022/05/28 01:32:04;;;;;;;13.35;2.22;;;11.50;94.70;;;;;;5125939;28;20094;-69
2022/05/28 01:34:31;;;;;;;13.00;2.42;;;11.50;94.90;;;;;;5126711;28;20020;-68
2022/05/28 01:36:57;;;;;;;12.57;2.72;;;11.50;94.60;;;;;;5126906;28;20047;-68
2022/05/28 01:39:25;;;;;;;10.38;2.75;;;11.50;94.60;;;;;;5126905;28;20330;-68
2022/05/28 01:41:53;;;;;;;9.90;2.88;;;11.40;94.50;;;;;;5126147;28;20311;-68
2022/05/28 01:44:21;;;;;;;8.35;2.33;;;11.40;94.50;;;;;;5125553;28;20195;-68
2022/05/28 01:46:47;;;;;;;10.80;2.30;;;11.40;94.60;;;;;;5116994;28;20024;-68
2022/05/28 01:49:17;;;;;;;10.98;2.28;;;11.30;94.70;;;;;;5106053;28;20105;-68
2022/05/28 01:51:49;;;;;;;15.95;2.25;;;11.30;94.60;;;;;;5105054;28;20036;-68
2022/05/28 01:54:17;;;;;;;9.20;2.13;;;11.40;94.60;;;;;;5105946;28;20386;-69
2022/05/28 01:56:46;;;;;;;9.32;2.17;;;11.40;94.60;;;;;;5105344;28;20024;-69
2022/05/28 01:59:15;;;;;;;9.13;2.05;;;11.40;94.60;;;;;;5087191;28;20063;-68
2022/05/28 02:01:41;;;;;;;10.38;2.05;;;11.40;94.40;;;;;;5104920;28;20095;-68
2022/05/28 02:04:09;;;;;;;8.10;1.90;;;11.40;94.40;;;;;;5106140;28;20012;-67
2022/05/28 02:06:36;;;;;;;6.03;1.77;;;11.40;94.40;;;;;;5104615;28;20020;-68
2022/05/28 02:09:08;;;;;;;10.15;2.28;;;11.40;94.50;;;;;;5087209;28;20088;-68
2022/05/28 02:11:50;;;;;;;6.32;1.80;;;11.30;94.80;;;;;;5084825;28;20035;-68
2022/05/28 02:14:31;;;;;;;7.90;2.08;;;11.30;95.60;;;;;;5084312;28;20055;-67
2022/05/28 02:17:20;;;;;;;7.85;2.50;;;11.20;96.20;;;;;;5084548;28;20028;-67
2022/05/28 02:20:13;;;;;;;6.45;2.33;;;11.10;96.40;;;;;;5084581;28;20074;-67
2022/05/28 02:22:50;;;;;;;10.05;2.83;;;11.10;96.60;;;;;;5084780;28;20092;-68
2022/05/28 02:25:23;;;;;;;9.25;2.45;;;11.10;96.70;;;;;;5085318;28;20322;-68
2022/05/28 02:27:51;;;;;;;12.02;2.85;;;11.00;96.90;;;;;;5117059;28;20015;-67
2022/05/28 02:30:17;;;;;;;7.97;2.75;;;11.00;97.00;;;;;;5108005;28;20106;-67
2022/05/28 02:32:43;;;;;;;7.97;2.20;;;11.00;96.80;;;;;;5108048;28;20210;-67
2022/05/28 02:35:10;;;;;;;9.98;2.70;;;10.90;96.80;;;;;;5125421;28;20087;-68
2022/05/28 02:37:36;;;;;;;9.23;2.70;;;11.00;96.80;;;;;;5124615;28;20055;-67
2022/05/28 02:40:02;;;;;;;9.43;2.63;;;10.90;96.70;;;;;;5126097;28;20020;-68
2022/05/28 02:42:28;;;;;;;9.15;2.40;;;10.90;96.70;;;;;;5126144;28;20042;-70
2022/05/28 02:44:54;;;;;;;7.93;2.60;;;10.90;96.70;;;;;;5125446;28;20030;-69
2022/05/28 02:47:20;;;;;;;8.82;2.33;;;10.90;96.80;;;;;;5111619;28;20012;-70
2022/05/28 02:49:45;;;;;;;9.45;2.25;;;10.80;96.90;;;;;;5105288;28;20231;-69
2022/05/28 02:52:11;;;;;;;12.63;2.28;;;10.80;97.00;;;;;;5104292;28;20035;-70
2022/05/28 02:54:37;;;;;;;7.13;2.50;;;10.80;97.10;;;;;;5103890;28;20031;-69
2022/05/28 02:57:04;;;;;;;10.73;2.95;;;10.70;97.30;;;;;;5105015;28;20023;-69
2022/05/28 02:59:30;;;;;;;8.90;2.50;;;10.60;97.60;;;;;;5103867;28;20024;-69
2022/05/28 03:01:56;;;;;;;11.25;2.72;;;10.50;97.90;;;;;;5103728;28;20031;-69
2022/05/28 03:04:22;;;;;;;8.80;2.03;;;10.50;98.10;;;;;;5103885;28;20047;-69
2022/05/28 03:06:48;;;;;;;11.80;2.38;;;10.50;98.10;;;;;;5102886;28;20020;-69
2022/05/28 03:09:15;;;;;;;8.95;2.38;;;10.50;98.10;;;;;;5083502;28;20096;-69
2022/05/28 03:11:40;;;;;;;9.77;2.42;;;10.40;98.20;;;;;;5084649;28;20031;-69
2022/05/28 03:14:06;;;;;;;9.40;2.70;;;10.40;98.80;;;;;;5084511;28;20020;-69
2022/05/28 03:16:32;;;;;;;6.28;2.50;;;10.40;98.60;;;;;;5082968;28;20208;-68
2022/05/28 03:18:57;;;;;;;7.35;2.22;;;10.40;98.60;;;;;;5084664;28;20044;-69
2022/05/28 03:21:23;;;;;;;10.90;2.88;;;10.40;98.60;;;;;;5083413;28;20028;-69
2022/05/28 03:23:49;;;;;;;7.30;2.45;;;10.40;98.70;;;;;;5084362;28;20025;-69
2022/05/28 03:26:22;;;;;;;8.80;2.45;;;10.40;98.70;;;;;;5073712;28;20249;-69
2022/05/28 03:28:49;;;;;;;9.15;2.60;;;10.30;98.70;;;;;;5107483;28;20084;-69
2022/05/28 03:31:15;;;;;;;8.80;2.70;;;10.30;98.70;;;;;;5124942;28;20020;-69
2022/05/28 03:33:42;;;;;;;9.45;2.67;;;10.20;98.80;;;;;;5123623;28;20034;-69
2022/05/28 03:36:08;;;;;;;10.05;3.10;;;10.20;99.00;;;;;;5124622;28;20090;-69
2022/05/28 03:38:34;;;;;;;8.68;2.70;;;10.20;99.00;;;;;;5123125;28;20027;-67
2022/05/28 03:41:00;;;;;;;10.82;2.13;;;10.10;99.00;;;;;;5124990;28;20299;-67
2022/05/28 03:43:26;;;;;;;7.65;2.22;;;10.10;99.00;;;;;;5124532;28;20024;-68
2022/05/28 03:45:52;;;;;;;6.55;2.22;;;10.10;99.20;;;;;;5122153;28;20024;-69
2022/05/28 03:48:18;;;;;;;9.70;2.60;;;10.10;99.40;;;;;;5103632;28;20350;-68
2022/05/28 03:50:44;;;;;;;7.43;2.03;;;10.00;99.60;;;;;;5104134;28;20325;-68
2022/05/28 03:53:10;;;;;;;5.65;2.13;;;10.10;99.60;;;;;;5103218;28;20020;-69
2022/05/28 03:55:37;;;;;;;9.38;2.28;;;10.20;99.70;;;;;;5085680;28;20299;-67
2022/05/28 03:58:04;;;;;;;7.60;2.40;;;10.30;99.50;;;;;;5104091;28;20020;-67
2022/05/28 04:00:30;;;;;;;7.57;2.45;;;10.40;99.20;;;;;;5102485;28;20058;-67
2022/05/28 04:02:57;;;;;;;7.75;2.92;;;10.20;99.30;;;;;;5104088;28;20016;-67
2022/05/28 04:05:23;;;;;;;15.75;3.00;;;10.20;99.90;;;;;;5103984;28;20298;-68
2022/05/28 04:07:49;;;;;;;10.05;2.75;;;10.10;99.90;;;;;;5094780;28;20326;-68
2022/05/28 04:10:15;;;;;;;8.65;3.13;;;10.00;99.90;;;;;;5082334;28;20028;-67
2022/05/28 04:12:41;;;;;;;9.07;2.85;;;9.90;99.90;;;;;;5083831;28;20024;-68
2022/05/28 04:15:08;;;;;;;9.68;2.78;;;9.90;99.90;;;;;;5083525;28;20024;-67
2022/05/28 04:17:34;;;;;;;13.10;2.85;;;10.00;99.90;;;;;;5082322;28;20077;-67
2022/05/28 04:19:59;;;;;;;10.30;2.40;;;10.10;99.90;;;;;;5083660;28;20048;-67
2022/05/28 04:22:25;;;;;;;11.82;2.60;;;10.20;99.90;;;;;;5082663;28;20030;-67
2022/05/28 04:24:51;;;;;;;10.55;2.30;;;10.20;99.90;;;;;;5083506;28;20199;-67
2022/05/28 04:27:17;;;;;;;8.48;2.47;;;10.20;99.90;;;;;;5074229;28;20096;-67
2022/05/28 04:29:43;;;;;;;10.80;3.25;;;10.20;99.90;;;;;;5082141;28;20258;-67
2022/05/28 04:32:09;;;;;;;6.47;2.30;;;10.20;99.90;;;;;;5083655;28;20032;-68
2022/05/28 04:34:34;;;;;;;9.68;2.83;;;10.20;99.90;;;;;;5082201;28;20266;-67
2022/05/28 04:37:00;;;;;;;20.33;3.25;;;10.30;99.90;;;;;;5098389;28;20131;-68
2022/05/28 04:39:26;;;;;;;14.30;3.15;;;10.30;99.90;;;;;;5083415;28;20028;-67
2022/05/28 04:41:51;;;;;;;17.10;3.28;;;10.50;99.90;;;;;;5099266;28;20031;-68
2022/05/28 04:44:17;;;;;;;10.65;2.70;;;10.70;99.90;;;;;;5098795;28;20039;-67
2022/05/28 04:46:42;;;;;;;11.98;3.20;;;10.90;99.80;;;;;;5092001;28;20012;-67
2022/05/28 04:49:08;;;;;;;12.70;2.97;;;11.10;99.20;;;;;;5101986;28;20048;-68
2022/05/28 04:51:34;;;;;;;17.00;3.58;;;11.30;98.90;;;;;;5106445;28;20020;-68
2022/05/28 04:53:59;;;;;;;12.55;3.10;;;11.30;98.40;;;;;;5107764;28;20299;-68
2022/05/28 04:56:25;;;;;;;22.92;4.15;;;11.20;98.60;;;;;;5105821;28;20272;-68
2022/05/28 04:58:51;;;;;;;11.63;2.75;;;11.30;98.80;;;;;;5107417;28;20037;-68
2022/05/28 05:01:20;;;;;;;15.52;3.75;;;11.30;98.30;;;;;;5105278;28;20040;-68
2022/05/28 05:03:46;;;;;;;15.95;3.20;;;11.40;98.30;;;;;;5106440;28;20024;-68
2022/05/28 05:06:11;;;;;;;12.57;2.75;;;11.70;98.40;;;;;;5107383;28;20326;-68
2022/05/28 05:08:37;;;;;;;14.25;2.97;;;12.00;97.80;;;;;;5091541;28;20055;-68
2022/05/28 05:11:03;;;;;;;10.45;2.75;;;12.20;97.20;;;;;;5086067;28;20016;-68
2022/05/28 05:13:29;;;;;;;15.13;3.05;;;12.40;97.00;;;;;;5086750;28;20029;-68
2022/05/28 05:15:54;;;;;;;13.60;2.80;;;12.60;96.10;;;;;;5085762;28;20193;-68
2022/05/28 05:18:20;;;;;;;10.43;2.40;;;12.70;95.40;;;;;;5085380;28;20059;-68
2022/05/28 05:20:46;;;;;;;13.02;2.30;;;12.60;95.00;;;;;;5085614;28;20016;-68
2022/05/28 05:23:12;;;;;;;12.38;2.15;;;12.40;95.30;;;;;;5086300;28;20043;-68
2022/05/28 05:25:38;;;;;;;9.95;2.10;;;12.20;95.60;;;;;;5086565;28;20040;-68
2022/05/28 05:28:04;;;;;;;9.65;1.70;;;12.10;95.70;;;;;;5123101;28;20091;-68
2022/05/28 05:30:30;;;;;;;7.07;2.33;;;12.00;95.70;;;;;;5126151;28;20019;-68
2022/05/28 05:32:55;;;;;;;11.98;2.30;;;12.00;95.70;;;;;;5126259;28;20053;-68
2022/05/28 05:35:22;;;;;;;10.13;2.40;;;11.90;95.90;;;;;;5126186;28;20019;-68
2022/05/28 05:37:47;;;;;;;8.15;2.33;;;11.90;95.90;;;;;;5125312;28;20330;-67
2022/05/28 05:40:14;;;;;;;6.10;1.92;;;11.90;96.00;;;;;;5125878;28;20094;-68
2022/05/28 05:42:40;;;;;;;10.77;2.00;;;11.80;96.20;;;;;;5125996;28;20215;-68
2022/05/28 05:45:06;;;;;;;9.50;2.10;;;11.90;96.20;;;;;;5126589;28;20043;-68
2022/05/28 05:47:33;;;;;;;13.13;2.10;;;11.80;96.20;;;;;;5110931;28;20035;-68
2022/05/28 05:49:58;;;;;;;13.00;2.17;;;11.90;96.20;;;;;;5104678;28;20243;-69
2022/05/28 05:52:24;;;;;;;8.30;1.88;;;12.00;96.30;;;;;;5088634;28;20024;-69
2022/05/28 05:54:50;;;;;;;12.32;2.10;;;12.10;96.30;;;;;;5105265;28;20345;-68
2022/05/28 05:57:16;;;;;;;7.22;1.98;;;12.10;95.50;;;;;;5105181;28;20031;-68
2022/05/28 05:59:41;;;;;;;10.05;2.38;;;12.00;95.70;;;;;;5106130;28;20050;-68
2022/05/28 06:02:08;;;;;;;10.77;2.00;;;12.10;95.60;;;;;;5101987;28;20047;-69
2022/05/28 06:04:34;;;;;;;9.85;1.90;;;12.10;95.70;;;;;;5105259;28;20053;-68
2022/05/28 06:07:00;;;;;;;15.10;2.17;;;12.10;95.40;;;;;;5102930;28;20055;-68
2022/05/28 06:09:25;;;;;;;11.95;1.92;;;12.10;95.50;;;;;;5085599;28;20304;-69
2022/05/28 06:11:52;;;;;;;13.30;2.35;;;12.20;95.00;;;;;;5084862;28;20027;-69
2022/05/28 06:14:17;;;;;;;8.15;1.63;;;12.20;95.10;;;;;;5084369;28;20028;-69
2022/05/28 06:16:43;;;;;;;12.68;2.88;;;12.30;95.00;;;;;;5085844;28;20082;-69
2022/05/28 06:19:09;;;;;;;9.30;1.98;;;12.30;95.00;;;;;;5085548;28;20087;-69
2022/05/28 06:21:35;;;;;;;11.00;1.65;;;12.40;94.70;;;;;;5085618;28;20339;-69
2022/05/28 06:24:01;;;;;;;11.20;1.73;;;12.40;94.70;;;;;;5084511;28;20032;-69
2022/05/28 06:26:27;;;;;;;10.23;1.50;;;12.50;94.00;;;;;;5094972;28;20047;-67
2022/05/28 06:28:53;;;;;;;11.73;1.80;;;12.50;94.20;;;;;;5125669;28;20051;-69
2022/05/28 06:31:19;;;;;;;8.75;1.70;;;12.60;94.10;;;;;;5126194;28;20019;-69
2022/05/28 06:33:45;;;;;;;14.45;1.48;;;12.70;93.50;;;;;;5124816;28;20306;-69
2022/05/28 06:36:12;;;;;;;4.18;1.27;;;12.60;92.70;;;;;;5125911;28;20027;-69
2022/05/28 06:38:38;;;;;;;6.75;1.40;;;12.60;92.60;;;;;;5124414;28;20188;-69
2022/05/28 06:41:04;;;;;;;7.97;1.45;;;12.60;92.50;;;;;;5125863;28;20045;-69
2022/05/28 06:43:30;;;;;;;14.18;1.70;;;12.70;92.10;;;;;;5124201;28;20042;-69
2022/05/28 06:45:56;;;;;;;5.95;1.52;;;12.80;92.10;;;;;;5122295;28;20023;-69
2022/05/28 06:48:22;;;;;;;10.32;1.50;;;12.80;92.00;;;;;;5103647;28;20058;-68
2022/05/28 06:51:03;;;;;;;10.90;1.73;;;12.80;91.90;;;;;;5103960;28;20028;-69
2022/05/28 06:53:38;;;;;;;10.07;1.42;;;12.90;92.00;;;;;;5089512;28;20230;-68
2022/05/28 06:56:05;;;;;;;5.80;1.50;;;12.90;91.20;;;;;;5104171;28;20054;-68
2022/05/28 06:58:31;;;;;;;7.10;1.33;;;12.90;90.90;;;;;;5104783;28;20020;-69
2022/05/28 07:00:57;;;;;;;9.35;1.63;;;12.90;90.90;;;;;;5104995;28;20020;-68
2022/05/28 07:03:26;;;;;;;4.97;1.10;;;12.80;90.70;;;;;;5102070;28;20050;-68
2022/05/28 07:05:52;;;;;;;7.05;1.75;;;12.90;90.60;;;;;;5105128;28;20176;-68
2022/05/28 07:08:18;;;;;;;7.30;1.42;;;12.90;91.00;;;;;;5091801;28;20024;-67
2022/05/28 07:10:47;;;;;;;7.65;1.73;;;12.90;90.40;;;;;;5084758;28;20024;-68
2022/05/28 07:13:13;;;;;;;14.07;2.10;;;12.90;90.80;;;;;;5082733;28;20028;-68
2022/05/28 07:15:39;;;;;;;9.70;1.45;;;12.90;91.20;;;;;;5083718;28;20028;-68
2022/05/28 07:18:05;;;;;;;8.63;1.15;;;12.90;91.30;;;;;;5084362;28;20016;-70
2022/05/28 07:20:31;;;;;;;10.63;1.75;;;12.90;91.20;;;;;;5083204;28;20013;-67
2022/05/28 07:22:56;;;;;;;6.55;1.20;;;13.00;90.20;;;;;;5084282;28;20035;-68
2022/05/28 07:25:22;;;;;;;12.88;2.10;;;13.00;90.50;;;;;;5084490;28;20032;-68
2022/05/28 07:27:48;;;;;;;11.85;1.77;;;13.00;90.60;;;;;;5117897;28;20104;-68
2022/05/28 07:30:14;;;;;;;8.63;1.95;;;13.10;90.50;;;;;;5106180;28;20028;-69
2022/05/28 07:32:40;;;;;;;6.15;1.38;;;13.20;90.30;;;;;;5125131;28;20049;-69
2022/05/28 07:35:07;;;;;;;4.97;1.17;;;13.20;90.10;;;;;;5124617;28;20015;-69
2022/05/28 07:37:32;;;;;;;8.35;1.80;;;13.30;90.20;;;;;;5124610;28;20083;-69
2022/05/28 07:39:59;;;;;;;9.05;1.38;;;13.20;90.50;;;;;;5124397;28;20365;-68
2022/05/28 07:42:27;;;;;;;10.50;2.38;;;13.20;90.70;;;;;;5124997;28;20051;-69
2022/05/28 07:44:52;;;;;;;7.15;1.67;;;13.20;91.00;;;;;;5124565;28;20026;-69
2022/05/28 07:47:18;;;;;;;7.93;1.90;;;13.50;90.90;;;;;;5109212;28;20032;-69
2022/05/28 07:49:44;;;;;;;9.65;1.45;;;13.40;90.80;;;;;;5085504;28;20080;-69
2022/05/28 07:52:11;;;;;;;10.18;1.60;;;13.50;90.70;;;;;;5102922;28;20047;-69
2022/05/28 07:54:37;;;;;;;9.90;2.00;;;13.70;90.60;;;;;;5104227;28;20023;-69
2022/05/28 07:57:04;;;;;;;5.78;1.20;;;14.00;90.40;;;;;;5103223;28;20026;-69
2022/05/28 07:59:30;;;;;;;11.35;1.55;;;14.10;90.40;;;;;;5103655;28;20032;-69
2022/05/28 08:01:56;;;;;;;9.57;1.83;;;14.20;89.90;;;;;;5102982;28;20094;-69
2022/05/28 08:04:22;;;;;;;10.18;1.50;;;14.10;90.10;;;;;;5101371;28;20065;-69
2022/05/28 08:06:48;;;;;;;8.95;1.60;;;14.00;90.10;;;;;;5102362;28;20031;-69
2022/05/28 08:09:14;;;;;;;11.23;2.08;;;13.90;90.50;;;;;;5083033;28;20028;-69
2022/05/28 08:11:41;;;;;;;10.45;1.42;;;14.00;90.20;;;;;;5082700;28;20084;-69
2022/05/28 08:14:07;;;;;;;8.27;1.50;;;14.00;90.10;;;;;;5082640;28;20028;-68
2022/05/28 08:16:34;;;;;;;9.05;1.88;;;14.00;89.50;;;;;;5084527;28;20028;-69
2022/05/28 08:19:00;;;;;;;8.43;1.55;;;13.80;90.00;;;;;;5084209;28;20040;-68
2022/05/28 08:24:11;;;;;;;5.88;1.40;;;13.70;90.00;;;;;;5082598;28;20021;-69
2022/05/28 08:26:38;;;;;;;9.45;1.75;;;13.90;89.50;;;;;;5097471;28;20290;-69
2022/05/28 08:29:05;;;;;;;6.47;1.33;;;14.10;89.40;;;;;;5124290;28;20042;-68
2022/05/28 08:31:30;;;;;;;7.60;1.30;;;14.40;89.00;;;;;;5122972;28;20019;-70
2022/05/28 08:33:56;;;;;;;6.18;1.55;;;14.70;88.10;;;;;;5105974;28;20030;-69
2022/05/28 08:36:22;;;;;;;10.23;2.63;;;14.90;87.20;;;;;;5122708;28;20022;-68
2022/05/28 08:38:48;;;;;;;6.75;1.55;;;14.90;86.80;;;;;;5105887;28;20023;-69
2022/05/28 08:41:25;;;;;;;5.28;1.42;;;14.80;87.20;;;;;;5123762;28;20019;-68
2022/05/28 08:44:02;;;;;;;8.85;1.40;;;14.80;87.30;;;;;;5122859;28;20285;-71
2022/05/28 08:46:32;;;;;;;5.68;1.70;;;14.60;87.00;;;;;;5116903;28;20062;-69
2022/05/28 08:48:57;;;;;;;5.25;1.58;;;14.50;88.00;;;;;;5102941;28;20052;-69
2022/05/28 08:51:52;;;;;;;10.65;1.92;;;14.60;87.60;;;;;;5103373;28;20371;-69
2022/05/28 08:54:56;;;;;;;6.78;1.50;;;14.40;88.00;;;;;;5089486;28;20293;-69
2022/05/28 08:57:45;;;;;;;7.43;1.35;;;14.50;88.10;;;;;;5102650;28;20047;-68
2022/05/28 09:00:32;;;;;;;12.77;1.50;;;14.70;87.30;;;;;;5102310;28;20019;-69
2022/05/28 09:03:19;;;;;;;8.18;1.40;;;14.70;86.90;;;;;;5101981;28;20028;-68
2022/05/28 09:05:57;;;;;;;6.43;1.33;;;14.60;87.00;;;;;;5100914;28;20040;-69
2022/05/28 09:08:30;;;;;;;8.50;1.65;;;14.70;86.80;;;;;;5089590;28;20054;-69
2022/05/28 09:11:01;;;;;;;8.27;1.55;;;14.90;85.90;;;;;;5082012;28;20030;-69
2022/05/28 09:13:36;;;;;;;3.08;1.10;;;15.00;86.40;;;;;;5081624;28;20021;-69
2022/05/28 09:16:04;;;;;;;6.35;1.98;;;14.80;86.00;;;;;;5064947;28;20025;-68
2022/05/28 09:18:37;;;;;;;5.05;1.75;;;14.60;86.60;;;;;;5082970;28;20020;-69
2022/05/28 09:21:04;;;;;;;8.40;2.50;;;14.50;86.70;;;;;;5082844;28;20016;-70
2022/05/28 09:23:43;;;;;;;5.80;1.90;;;14.50;87.30;;;;;;5081396;28;20307;-70
2022/05/28 09:26:10;;;;;;;5.38;2.00;;;14.40;87.50;;;;;;5088581;28;20261;-70
2022/05/28 09:28:51;;;;;;;8.68;2.40;;;14.70;87.00;;;;;;5123364;28;20055;-69
2022/05/28 09:31:57;;;;;;;5.55;2.15;;;14.90;86.20;;;;;;5122324;28;20028;-69
2022/05/28 09:34:49;;;;;;;5.75;2.10;;;14.80;86.20;;;;;;5110920;28;20079;-69
2022/05/28 09:37:31;;;;;;;7.03;1.75;;;14.90;85.60;;;;;;5125699;28;20212;-69
2022/05/28 09:40:20;;;;;;;5.00;1.67;;;15.20;85.50;;;;;;5127326;28;20034;-69
2022/05/28 09:43:09;;;;;;;7.18;1.92;;;15.00;84.90;;;;;;5111817;28;20035;-69
2022/05/28 09:46:04;;;;;;;7.65;2.10;;;14.90;86.00;;;;;;5110176;28;20023;-70
2022/05/28 09:48:30;;;;;;;7.15;1.83;;;15.00;86.60;;;;;;5105375;28;20051;-68
2022/05/28 09:50:55;;;;;;;8.90;1.88;;;15.00;84.60;;;;;;5105373;28;20024;-70
2022/05/28 09:56:36;;;;;;;7.07;1.50;;;15.80;83.10;;;;;;5085202;28;20024;-71
2022/05/28 09:59:16;;;;;;;4.30;1.45;;;16.00;82.30;;;;;;5085761;28;20275;-70
2022/05/28 10:02:10;;;;;;;4.55;1.55;;;15.90;82.50;;;;;;5085950;28;20066;-69
2022/05/28 10:05:02;;;;;;;3.80;1.45;;;15.90;82.70;;;;;;5082889;28;20031;-70
2022/05/28 10:07:30;;;;;;;;;;;15.60;83.20;;;;;;5090814;28;20016;-69
2022/05/28 10:09:57;;;;;;;8.10;2.20;;;15.50;84.10;;;;;;5105058;28;19930;-69
2022/05/28 10:12:27;;;;;;;4.57;1.10;;;15.60;82.10;;;;;;5105814;28;20054;-69
2022/05/28 10:15:11;;;;;;;4.00;1.02;;;15.90;81.80;;;;;;5104855;28;20241;-70
2022/05/28 10:17:37;;;;;;;5.40;1.30;;;16.00;79.70;;;;;;5105919;28;20020;-70
2022/05/28 10:20:14;;;;;;;6.95;1.63;;;16.10;80.30;;;;;;5105052;28;20103;-70
2022/05/28 10:22:40;;;;;;;5.78;1.40;;;16.10;80.80;;;;;;5104291;28;20192;-69
2022/05/28 10:25:29;;;;;;;4.95;1.27;;;16.20;81.50;;;;;;5105956;28;20027;-70
2022/05/28 10:27:56;;;;;;;5.47;1.40;;;16.20;80.70;;;;;;5105178;28;20041;-70
2022/05/28 10:30:26;;;;;;;11.52;5.05;;;16.10;81.20;;;;;;5126109;28;20031;-69
2022/05/28 10:32:53;;;;;;;7.22;1.70;;;15.90;81.40;;;;;;5124878;28;20032;-70
2022/05/28 10:35:26;;;;;;;3.38;1.55;;;15.90;80.40;;;;;;5124887;28;20024;-69
2022/05/28 10:37:53;;;;;;;4.45;1.33;;;16.00;80.40;;;;;;5125750;28;20023;-70
2022/05/28 10:40:26;;;;;;;4.20;1.15;;;16.10;78.50;;;;;;5126112;28;20046;-70
2022/05/28 10:43:01;;;;;;;4.82;1.20;;;16.30;76.80;;;;;;5125591;28;20026;-70
2022/05/28 10:45:36;;;;;;;6.07;1.40;;;16.30;77.50;;;;;;5124581;28;20306;-70
2022/05/28 10:48:33;;;;;;;5.20;1.65;;;16.10;78.30;;;;;;5103417;28;20107;-70
2022/05/28 10:51:11;;;;;;;6.45;1.73;;;16.30;77.90;;;;;;5104154;28;20119;-70
2022/05/28 10:54:13;;;;;;;4.90;1.60;;;16.70;79.80;;;;;;5104978;28;20089;-72
2022/05/28 10:56:52;;;;;;;5.57;1.80;;;16.90;78.80;;;;;;5071884;28;20054;-70
2022/05/28 10:59:58;;;;;;;5.53;1.80;;;16.90;79.00;;;;;;5100565;28;20020;-70
2022/05/28 11:02:57;;;;;;;9.20;1.70;;;17.10;78.50;;;;;;5075259;28;20047;-70
2022/05/28 11:05:57;;;;;;;5.05;1.80;;;17.10;78.40;;;;;;5082148;28;20032;-70
2022/05/28 11:08:45;;;;;;;4.45;1.42;;;17.20;78.10;;;;;;5096987;28;20212;-71
2022/05/28 11:11:40;;;;;;;4.97;1.60;;;16.90;78.70;;;;;;5105002;28;20059;-70
2022/05/28 11:14:45;;;;;;;3.05;1.75;;;16.90;78.50;;;;;;5103585;28;20299;-69
2022/05/28 11:17:41;;;;;;;3.58;1.50;;;17.00;78.50;;;;;;5103754;28;20303;-71
2022/05/28 11:20:47;;;;;;;5.78;1.70;;;17.20;77.60;;;;;;5103967;28;20028;-69
2022/05/28 11:23:32;;;;;;;6.68;1.90;;;17.00;77.60;;;;;;5089116;28;20016;-69
2022/05/28 11:26:15;;;;;;;4.63;1.60;;;16.80;78.20;;;;;;5104868;28;20031;-70
2022/05/28 11:29:18;;;;;;;4.78;2.03;;;16.70;79.10;;;;;;5125109;28;20027;-72
2022/05/28 11:31:56;;;;;;;5.38;1.83;;;16.50;79.30;;;;;;5112199;28;20016;-69
2022/05/28 11:34:30;;;;;;;5.40;1.67;;;16.60;77.90;;;;;;5107040;28;20031;-69
2022/05/28 11:37:22;;;;;;;3.90;1.67;;;16.70;77.40;;;;;;5123527;28;20112;-69
2022/05/28 11:39:58;;;;;;;5.57;1.83;;;16.90;77.80;;;;;;5095588;28;20273;-70
2022/05/28 11:42:47;;;;;;;5.40;1.67;;;17.00;77.10;;;;;;5123450;28;20020;-69
2022/05/28 11:45:33;;;;;;;4.32;1.50;;;17.10;77.20;;;;;;5109847;28;20280;-69
2022/05/28 11:48:07;;;;;;;4.57;1.50;;;17.20;77.80;;;;;;5104572;28;20084;-71
2022/05/28 11:53:54;;;;;;;5.60;1.60;;;17.30;76.50;;;;;;5075870;28;20020;-74
2022/05/28 11:56:28;;;;;;;3.08;1.40;;;17.40;76.40;;;;;;5103101;28;20040;-70
2022/05/28 11:59:02;;;;;;;4.00;1.30;;;17.50;76.80;;;;;;5104188;28;20016;-68
2022/05/28 12:01:36;;;;;;;4.78;1.83;;;17.40;76.50;;;;;;5103081;28;20027;-69
2022/05/28 12:04:01;;;;;;;3.65;1.67;;;17.10;76.70;;;;;;5102666;28;20027;-70
2022/05/28 12:06:34;;;;;;;3.15;1.10;;;17.20;76.40;;;;;;5102669;28;20207;-70
2022/05/28 12:09:06;;;;;;;5.32;1.50;;;17.30;76.20;;;;;;5083072;28;20093;-71
2022/05/28 12:11:46;;;;;;;5.00;1.30;;;17.40;74.50;;;;;;5082471;28;20333;-70
2022/05/28 12:14:31;;;;;;;5.25;1.42;;;17.70;74.60;;;;;;5082486;28;20023;-71
2022/05/28 12:17:07;;;;;;;4.70;1.58;;;18.00;75.00;;;;;;5082478;28;20047;-70
2022/05/28 12:19:34;;;;;;;6.70;1.67;;;18.10;75.10;;;;;;5082708;28;20048;-70
2022/05/28 12:22:28;;;;;;;2.42;1.38;;;18.10;75.00;;;;;;5083639;28;20033;-71
2022/05/28 12:25:30;;;;;;;6.68;1.73;;;17.90;76.00;;;;;;5082322;28;20060;-71
2022/05/28 12:28:11;;;;;;;3.75;1.30;;;17.90;75.70;;;;;;5118472;28;20038;-70
2022/05/28 12:30:48;;;;;;;3.58;1.40;;;17.80;75.10;;;;;;5123988;28;20031;-71
2022/05/28 12:33:48;;;;;;;6.95;1.42;;;17.70;75.60;;;;;;5124117;28;20084;-69
2022/05/28 12:36:43;;;;;;;4.68;1.40;;;17.90;75.50;;;;;;5091542;28;20058;-72
2022/05/28 12:39:36;;;;;;;6.07;1.85;;;18.30;74.80;;;;;;5110015;28;20032;-70
2022/05/28 12:42:03;;;;;;;5.47;1.45;;;18.50;73.60;;;;;;5123170;28;20130;-70
2022/05/28 12:44:29;;;;;;;4.35;1.17;;;18.40;73.40;;;;;;5123783;28;20061;-71
2022/05/28 12:46:59;;;;;;;4.78;1.60;;;18.40;73.70;;;;;;5111559;28;20016;-71
2022/05/28 12:49:52;;;;;;;4.53;1.35;;;18.30;73.80;;;;;;5103665;28;20048;-71
2022/05/28 12:52:47;;;;;;;5.70;1.67;;;18.10;74.20;;;;;;5088355;28;20311;-70
2022/05/28 12:55:31;;;;;;;4.25;1.40;;;18.30;74.10;;;;;;5089380;28;20113;-72
2022/05/28 12:58:28;;;;;;;3.05;1.77;;;18.60;72.30;;;;;;5081947;28;20028;-72
2022/05/28 13:00:57;;;;;;;3.97;1.60;;;19.00;72.00;;;;;;5082189;28;20024;-71
2022/05/28 13:03:26;;;;;;;7.53;1.75;;;18.90;72.30;;;;;;5082145;28;20084;-70
2022/05/28 13:06:02;;;;;;;2.45;1.42;;;18.70;73.00;;;;;;5081446;28;20095;-69
2022/05/28 13:08:30;;;;;;;4.85;1.75;;;18.70;73.10;;;;;;5090560;28;20067;-71
2022/05/28 13:10:58;;;;;;;3.92;1.60;;;18.50;73.10;;;;;;5084308;28;20035;-69
2022/05/28 13:14:04;;;;;;;7.20;1.60;;;18.80;73.40;;;;;;5086782;28;20086;-71
2022/05/28 13:16:57;;;;;;;2.65;1.48;;;19.00;73.00;;;;;;5099972;28;20027;-70